sensor_id;sensor_type;location;lat;lon;timestamp;P1;durP1;ratioP1;P2;durP2;ratioP2
52266;SDS011;38223;50.940;4.034;2022-09-02T00:00:55;9.45;;;3.08;;
52266;SDS011;38223;50.940;4.034;2022-09-02T00:03:31;5.35;;;3.17;;
52266;SDS011;38223;50.940;4.034;2022-09-02T00:06:02;15.65;;;3.65;;
52266;SDS011;38223;50.940;4.034;2022-09-02T00:08:33;12.28;;;3.33;;
52266;SDS011;38223;50.940;4.034;2022-09-02T00:11:06;8.48;;;3.02;;
52266;SDS011;38223;50.940;4.034;2022-09-02T00:13:40;8.15;;;3.40;;
52266;SDS011;38223;50.940;4.034;2022-09-02T00:16:12;9.38;;;3.35;;
52266;SDS011;38223;50.940;4.034;2022-09-02T00:18:45;11.48;;;3.70;;
52266;SDS011;38223;50.940;4.034;2022-09-02T00:21:17;11.25;;;3.52;;
52266;SDS011;38223;50.940;4.034;2022-09-02T00:23:50;4.58;;;3.25;;
52266;SDS011;38223;50.940;4.034;2022-09-02T00:26:28;13.00;;;3.35;;
52266;SDS011;38223;50.940;4.034;2022-09-02T00:29:04;7.70;;;3.52;;
52266;SDS011;38223;50.940;4.034;2022-09-02T00:31:37;6.17;;;4.08;;
52266;SDS011;38223;50.940;4.034;2022-09-02T00:36:41;5.47;;;3.12;;
52266;SDS011;38223;50.940;4.034;2022-09-02T00:39:15;7.80;;;3.30;;
52266;SDS011;38223;50.940;4.034;2022-09-02T00:41:46;7.45;;;3.45;;
52266;SDS011;38223;50.940;4.034;2022-09-02T00:44:18;4.92;;;3.27;;
52266;SDS011;38223;50.940;4.034;2022-09-02T00:46:53;4.30;;;3.47;;
52266;SDS011;38223;50.940;4.034;2022-09-02T00:49:30;5.40;;;3.27;;
52266;SDS011;38223;50.940;4.034;2022-09-02T00:52:10;7.67;;;3.20;;
52266;SDS011;38223;50.940;4.034;2022-09-02T00:54:49;5.35;;;3.22;;
52266;SDS011;38223;50.940;4.034;2022-09-02T00:57:20;7.75;;;3.70;;
52266;SDS011;38223;50.940;4.034;2022-09-02T01:00:07;4.75;;;3.67;;
52266;SDS011;38223;50.940;4.034;2022-09-02T01:02:47;7.33;;;3.60;;
52266;SDS011;38223;50.940;4.034;2022-09-02T01:05:21;7.22;;;3.83;;
52266;SDS011;38223;50.940;4.034;2022-09-02T01:07:55;12.68;;;3.42;;
52266;SDS011;38223;50.940;4.034;2022-09-02T01:10:30;5.87;;;4.17;;
52266;SDS011;38223;50.940;4.034;2022-09-02T01:13:13;8.90;;;3.25;;
52266;SDS011;38223;50.940;4.034;2022-09-02T01:15:51;8.40;;;3.17;;
52266;SDS011;38223;50.940;4.034;2022-09-02T01:18:20;10.08;;;3.72;;
52266;SDS011;38223;50.940;4.034;2022-09-02T01:20:56;6.10;;;3.52;;
52266;SDS011;38223;50.940;4.034;2022-09-02T01:23:31;6.75;;;3.27;;
52266;SDS011;38223;50.940;4.034;2022-09-02T01:26:00;8.05;;;3.55;;
52266;SDS011;38223;50.940;4.034;2022-09-02T01:28:34;8.00;;;3.67;;
52266;SDS011;38223;50.940;4.034;2022-09-02T01:31:08;8.80;;;3.67;;
52266;SDS011;38223;50.940;4.034;2022-09-02T01:33:39;6.67;;;3.50;;
52266;SDS011;38223;50.940;4.034;2022-09-02T01:36:13;6.80;;;3.37;;
52266;SDS011;38223;50.940;4.034;2022-09-02T01:38:42;9.73;;;3.22;;
52266;SDS011;38223;50.940;4.034;2022-09-02T01:41:25;7.37;;;3.52;;
52266;SDS011;38223;50.940;4.034;2022-09-02T01:43:58;15.30;;;3.70;;
52266;SDS011;38223;50.940;4.034;2022-09-02T01:49:20;8.47;;;3.47;;
52266;SDS011;38223;50.940;4.034;2022-09-02T01:51:55;4.78;;;3.55;;
52266;SDS011;38223;50.940;4.034;2022-09-02T01:54:27;4.78;;;3.75;;
52266;SDS011;38223;50.940;4.034;2022-09-02T01:56:58;4.40;;;3.33;;
52266;SDS011;38223;50.940;4.034;2022-09-02T01:59:34;6.58;;;3.55;;
52266;SDS011;38223;50.940;4.034;2022-09-02T02:02:04;10.82;;;3.87;;
52266;SDS011;38223;50.940;4.034;2022-09-02T02:04:40;10.18;;;3.58;;
52266;SDS011;38223;50.940;4.034;2022-09-02T02:07:08;7.42;;;3.27;;
52266;SDS011;38223;50.940;4.034;2022-09-02T02:09:45;4.92;;;3.72;;
52266;SDS011;38223;50.940;4.034;2022-09-02T02:15:21;5.47;;;3.12;;
52266;SDS011;38223;50.940;4.034;2022-09-02T02:18:08;6.25;;;3.52;;
52266;SDS011;38223;50.940;4.034;2022-09-02T02:20:42;7.65;;;3.60;;
52266;SDS011;38223;50.940;4.034;2022-09-02T02:23:15;8.23;;;3.50;;
52266;SDS011;38223;50.940;4.034;2022-09-02T02:25:51;5.87;;;3.52;;
52266;SDS011;38223;50.940;4.034;2022-09-02T02:28:21;12.55;;;3.75;;
52266;SDS011;38223;50.940;4.034;2022-09-02T02:30:52;14.15;;;4.00;;
52266;SDS011;38223;50.940;4.034;2022-09-02T02:33:30;5.10;;;3.62;;
52266;SDS011;38223;50.940;4.034;2022-09-02T02:36:06;7.17;;;3.60;;
52266;SDS011;38223;50.940;4.034;2022-09-02T02:38:41;7.95;;;3.60;;
52266;SDS011;38223;50.940;4.034;2022-09-02T02:41:16;6.75;;;3.22;;
52266;SDS011;38223;50.940;4.034;2022-09-02T02:43:48;8.18;;;3.55;;
52266;SDS011;38223;50.940;4.034;2022-09-02T02:46:21;5.92;;;4.08;;
52266;SDS011;38223;50.940;4.034;2022-09-02T02:48:55;6.47;;;3.62;;
52266;SDS011;38223;50.940;4.034;2022-09-02T02:51:27;10.93;;;3.83;;
52266;SDS011;38223;50.940;4.034;2022-09-02T02:54:01;7.65;;;3.65;;
52266;SDS011;38223;50.940;4.034;2022-09-02T02:56:35;7.70;;;3.58;;
52266;SDS011;38223;50.940;4.034;2022-09-02T02:59:10;4.53;;;3.52;;
52266;SDS011;38223;50.940;4.034;2022-09-02T03:01:41;6.65;;;3.50;;
52266;SDS011;38223;50.940;4.034;2022-09-02T03:04:15;6.08;;;3.77;;
52266;SDS011;38223;50.940;4.034;2022-09-02T03:06:48;11.55;;;4.12;;
52266;SDS011;38223;50.940;4.034;2022-09-02T03:09:21;5.37;;;3.52;;
52266;SDS011;38223;50.940;4.034;2022-09-02T03:11:53;7.12;;;3.55;;
52266;SDS011;38223;50.940;4.034;2022-09-02T03:14:29;6.00;;;3.72;;
52266;SDS011;38223;50.940;4.034;2022-09-02T03:17:00;7.30;;;3.90;;
52266;SDS011;38223;50.940;4.034;2022-09-02T03:19:33;4.17;;;3.10;;
52266;SDS011;38223;50.940;4.034;2022-09-02T03:22:13;8.45;;;3.52;;
52266;SDS011;38223;50.940;4.034;2022-09-02T03:24:44;9.18;;;3.77;;
52266;SDS011;38223;50.940;4.034;2022-09-02T03:27:15;6.35;;;3.20;;
52266;SDS011;38223;50.940;4.034;2022-09-02T03:29:48;11.50;;;3.33;;
52266;SDS011;38223;50.940;4.034;2022-09-02T03:32:21;8.55;;;3.75;;
52266;SDS011;38223;50.940;4.034;2022-09-02T03:34:52;8.70;;;3.42;;
52266;SDS011;38223;50.940;4.034;2022-09-02T03:37:22;7.97;;;4.20;;
52266;SDS011;38223;50.940;4.034;2022-09-02T03:39:53;10.85;;;3.83;;
52266;SDS011;38223;50.940;4.034;2022-09-02T03:42:30;6.78;;;3.77;;
52266;SDS011;38223;50.940;4.034;2022-09-02T03:45:07;9.35;;;3.98;;
52266;SDS011;38223;50.940;4.034;2022-09-02T03:47:40;10.75;;;3.52;;
52266;SDS011;38223;50.940;4.034;2022-09-02T03:50:14;6.62;;;3.70;;
52266;SDS011;38223;50.940;4.034;2022-09-02T03:52:51;6.15;;;3.65;;
52266;SDS011;38223;50.940;4.034;2022-09-02T03:55:21;7.40;;;3.95;;
52266;SDS011;38223;50.940;4.034;2022-09-02T03:57:54;8.75;;;3.58;;
52266;SDS011;38223;50.940;4.034;2022-09-02T04:00:26;8.38;;;3.20;;
52266;SDS011;38223;50.940;4.034;2022-09-02T04:03:02;7.75;;;3.60;;
52266;SDS011;38223;50.940;4.034;2022-09-02T04:05:35;9.10;;;3.95;;
52266;SDS011;38223;50.940;4.034;2022-09-02T04:10:37;4.55;;;2.80;;
52266;SDS011;38223;50.940;4.034;2022-09-02T04:13:11;4.17;;;3.33;;
52266;SDS011;38223;50.940;4.034;2022-09-02T04:15:42;4.90;;;3.35;;
52266;SDS011;38223;50.940;4.034;2022-09-02T04:18:15;7.80;;;3.75;;
52266;SDS011;38223;50.940;4.034;2022-09-02T04:20:52;8.05;;;3.62;;
52266;SDS011;38223;50.940;4.034;2022-09-02T04:23:27;4.30;;;3.62;;
52266;SDS011;38223;50.940;4.034;2022-09-02T04:26:01;9.33;;;3.70;;
52266;SDS011;38223;50.940;4.034;2022-09-02T04:28:33;7.55;;;4.20;;
52266;SDS011;38223;50.940;4.034;2022-09-02T04:31:08;8.78;;;3.52;;
52266;SDS011;38223;50.940;4.034;2022-09-02T04:33:43;4.50;;;3.35;;
52266;SDS011;38223;50.940;4.034;2022-09-02T04:36:14;5.95;;;3.25;;
52266;SDS011;38223;50.940;4.034;2022-09-02T04:38:47;6.12;;;3.55;;
52266;SDS011;38223;50.940;4.034;2022-09-02T04:41:21;10.00;;;3.85;;
52266;SDS011;38223;50.940;4.034;2022-09-02T04:43:57;6.65;;;3.05;;
52266;SDS011;38223;50.940;4.034;2022-09-02T04:46:29;5.37;;;3.70;;
52266;SDS011;38223;50.940;4.034;2022-09-02T04:48:59;11.70;;;4.05;;
52266;SDS011;38223;50.940;4.034;2022-09-02T04:51:42;7.15;;;3.45;;
52266;SDS011;38223;50.940;4.034;2022-09-02T04:54:18;6.80;;;3.83;;
52266;SDS011;38223;50.940;4.034;2022-09-02T04:56:48;10.68;;;3.70;;
52266;SDS011;38223;50.940;4.034;2022-09-02T04:59:23;7.67;;;4.05;;
52266;SDS011;38223;50.940;4.034;2022-09-02T05:02:00;6.85;;;3.20;;
52266;SDS011;38223;50.940;4.034;2022-09-02T05:04:31;9.85;;;3.85;;
52266;SDS011;38223;50.940;4.034;2022-09-02T05:07:07;3.98;;;3.15;;
52266;SDS011;38223;50.940;4.034;2022-09-02T05:09:36;7.42;;;3.62;;
52266;SDS011;38223;50.940;4.034;2022-09-02T05:12:11;8.10;;;3.92;;
52266;SDS011;38223;50.940;4.034;2022-09-02T05:14:41;8.40;;;3.65;;
52266;SDS011;38223;50.940;4.034;2022-09-02T05:17:16;13.00;;;3.80;;
52266;SDS011;38223;50.940;4.034;2022-09-02T05:19:46;13.40;;;3.80;;
52266;SDS011;38223;50.940;4.034;2022-09-02T05:22:22;7.58;;;3.67;;
52266;SDS011;38223;50.940;4.034;2022-09-02T05:24:54;7.95;;;3.70;;
52266;SDS011;38223;50.940;4.034;2022-09-02T05:27:30;11.70;;;3.83;;
52266;SDS011;38223;50.940;4.034;2022-09-02T05:30:01;8.98;;;3.70;;
52266;SDS011;38223;50.940;4.034;2022-09-02T05:32:38;11.97;;;3.98;;
52266;SDS011;38223;50.940;4.034;2022-09-02T05:35:07;7.75;;;3.52;;
52266;SDS011;38223;50.940;4.034;2022-09-02T05:37:40;5.67;;;3.85;;
52266;SDS011;38223;50.940;4.034;2022-09-02T05:40:17;8.75;;;4.08;;
52266;SDS011;38223;50.940;4.034;2022-09-02T05:42:46;7.55;;;3.72;;
52266;SDS011;38223;50.940;4.034;2022-09-02T05:45:18;8.15;;;3.62;;
52266;SDS011;38223;50.940;4.034;2022-09-02T05:47:50;10.63;;;4.10;;
52266;SDS011;38223;50.940;4.034;2022-09-02T05:50:21;9.18;;;4.10;;
52266;SDS011;38223;50.940;4.034;2022-09-02T05:52:55;13.25;;;4.55;;
52266;SDS011;38223;50.940;4.034;2022-09-02T05:55:26;7.78;;;4.30;;
52266;SDS011;38223;50.940;4.034;2022-09-02T05:57:58;13.28;;;4.15;;
52266;SDS011;38223;50.940;4.034;2022-09-02T06:00:32;9.08;;;3.98;;
52266;SDS011;38223;50.940;4.034;2022-09-02T06:03:04;8.13;;;4.00;;
52266;SDS011;38223;50.940;4.034;2022-09-02T06:05:35;12.53;;;4.20;;
52266;SDS011;38223;50.940;4.034;2022-09-02T06:08:07;9.68;;;4.45;;
52266;SDS011;38223;50.940;4.034;2022-09-02T06:10:41;11.10;;;3.98;;
52266;SDS011;38223;50.940;4.034;2022-09-02T06:13:15;11.45;;;3.83;;
52266;SDS011;38223;50.940;4.034;2022-09-02T06:15:47;8.98;;;3.92;;
52266;SDS011;38223;50.940;4.034;2022-09-02T06:18:20;9.80;;;4.08;;
52266;SDS011;38223;50.940;4.034;2022-09-02T06:20:52;14.60;;;4.45;;
52266;SDS011;38223;50.940;4.034;2022-09-02T06:23:23;16.02;;;3.95;;
52266;SDS011;38223;50.940;4.034;2022-09-02T06:25:55;9.10;;;3.50;;
52266;SDS011;38223;50.940;4.034;2022-09-02T06:28:29;7.58;;;4.25;;
52266;SDS011;38223;50.940;4.034;2022-09-02T06:31:11;9.45;;;4.33;;
52266;SDS011;38223;50.940;4.034;2022-09-02T06:33:35;16.57;;;4.45;;
52266;SDS011;38223;50.940;4.034;2022-09-02T06:36:15;12.53;;;4.17;;
52266;SDS011;38223;50.940;4.034;2022-09-02T06:38:49;16.62;;;4.47;;
52266;SDS011;38223;50.940;4.034;2022-09-02T06:41:29;11.18;;;4.42;;
52266;SDS011;38223;50.940;4.034;2022-09-02T06:44:03;11.18;;;4.25;;
52266;SDS011;38223;50.940;4.034;2022-09-02T06:46:38;6.67;;;4.17;;
52266;SDS011;38223;50.940;4.034;2022-09-02T06:49:13;27.02;;;5.90;;
52266;SDS011;38223;50.940;4.034;2022-09-02T06:51:47;7.58;;;4.12;;
52266;SDS011;38223;50.940;4.034;2022-09-02T06:54:19;16.02;;;4.53;;
52266;SDS011;38223;50.940;4.034;2022-09-02T06:56:56;9.88;;;3.90;;
52266;SDS011;38223;50.940;4.034;2022-09-02T06:59:27;6.78;;;3.60;;
52266;SDS011;38223;50.940;4.034;2022-09-02T07:02:00;17.45;;;4.55;;
52266;SDS011;38223;50.940;4.034;2022-09-02T07:04:37;6.37;;;3.98;;
52266;SDS011;38223;50.940;4.034;2022-09-02T07:07:12;10.08;;;4.10;;
52266;SDS011;38223;50.940;4.034;2022-09-02T07:09:45;13.65;;;4.08;;
52266;SDS011;38223;50.940;4.034;2022-09-02T07:12:15;12.28;;;4.47;;
52266;SDS011;38223;50.940;4.034;2022-09-02T07:14:57;7.37;;;3.47;;
52266;SDS011;38223;50.940;4.034;2022-09-02T07:17:28;12.20;;;4.83;;
52266;SDS011;38223;50.940;4.034;2022-09-02T07:19:59;6.45;;;3.70;;
52266;SDS011;38223;50.940;4.034;2022-09-02T07:22:35;7.78;;;4.20;;
52266;SDS011;38223;50.940;4.034;2022-09-02T07:25:08;5.15;;;4.28;;
52266;SDS011;38223;50.940;4.034;2022-09-02T07:27:42;7.53;;;3.58;;
52266;SDS011;38223;50.940;4.034;2022-09-02T07:30:13;6.45;;;4.10;;
52266;SDS011;38223;50.940;4.034;2022-09-02T07:32:47;13.43;;;4.37;;
52266;SDS011;38223;50.940;4.034;2022-09-02T07:35:18;11.55;;;4.50;;
52266;SDS011;38223;50.940;4.034;2022-09-02T07:37:50;9.05;;;4.10;;
52266;SDS011;38223;50.940;4.034;2022-09-02T07:40:20;12.83;;;4.00;;
52266;SDS011;38223;50.940;4.034;2022-09-02T07:42:49;15.72;;;4.12;;
52266;SDS011;38223;50.940;4.034;2022-09-02T07:45:19;8.05;;;4.05;;
52266;SDS011;38223;50.940;4.034;2022-09-02T07:47:53;16.20;;;4.40;;
52266;SDS011;38223;50.940;4.034;2022-09-02T07:50:25;9.48;;;4.42;;
52266;SDS011;38223;50.940;4.034;2022-09-02T07:52:58;7.03;;;4.00;;
52266;SDS011;38223;50.940;4.034;2022-09-02T07:55:30;5.60;;;3.30;;
52266;SDS011;38223;50.940;4.034;2022-09-02T07:58:03;4.47;;;3.87;;
52266;SDS011;38223;50.940;4.034;2022-09-02T08:00:33;6.30;;;3.70;;
52266;SDS011;38223;50.940;4.034;2022-09-02T08:03:07;6.22;;;3.65;;
52266;SDS011;38223;50.940;4.034;2022-09-02T08:05:39;4.45;;;3.75;;
52266;SDS011;38223;50.940;4.034;2022-09-02T08:08:13;7.65;;;4.42;;
52266;SDS011;38223;50.940;4.034;2022-09-02T08:10:46;6.90;;;3.98;;
52266;SDS011;38223;50.940;4.034;2022-09-02T08:13:21;5.62;;;4.08;;
52266;SDS011;38223;50.940;4.034;2022-09-02T08:15:56;4.45;;;4.05;;
52266;SDS011;38223;50.940;4.034;2022-09-02T08:18:29;6.05;;;4.15;;
52266;SDS011;38223;50.940;4.034;2022-09-02T08:21:05;4.47;;;4.00;;
52266;SDS011;38223;50.940;4.034;2022-09-02T08:23:36;10.35;;;3.55;;
52266;SDS011;38223;50.940;4.034;2022-09-02T08:26:05;4.53;;;3.50;;
52266;SDS011;38223;50.940;4.034;2022-09-02T08:28:39;10.43;;;3.90;;
52266;SDS011;38223;50.940;4.034;2022-09-02T08:31:14;7.80;;;3.90;;
52266;SDS011;38223;50.940;4.034;2022-09-02T08:33:46;4.53;;;3.40;;
52266;SDS011;38223;50.940;4.034;2022-09-02T08:36:18;6.90;;;3.52;;
52266;SDS011;38223;50.940;4.034;2022-09-02T08:38:48;5.97;;;3.45;;
52266;SDS011;38223;50.940;4.034;2022-09-02T08:41:22;3.80;;;3.25;;
52266;SDS011;38223;50.940;4.034;2022-09-02T08:43:57;7.53;;;4.00;;
52266;SDS011;38223;50.940;4.034;2022-09-02T08:46:31;7.83;;;3.30;;
52266;SDS011;38223;50.940;4.034;2022-09-02T08:49:11;5.37;;;3.27;;
52266;SDS011;38223;50.940;4.034;2022-09-02T08:51:50;3.27;;;2.98;;
52266;SDS011;38223;50.940;4.034;2022-09-02T08:54:25;5.97;;;3.90;;
52266;SDS011;38223;50.940;4.034;2022-09-02T08:57:19;10.35;;;4.15;;
52266;SDS011;38223;50.940;4.034;2022-09-02T08:59:49;6.47;;;3.72;;
52266;SDS011;38223;50.940;4.034;2022-09-02T09:05:25;7.05;;;3.60;;
52266;SDS011;38223;50.940;4.034;2022-09-02T09:19:14;3.50;;;3.20;;
52266;SDS011;38223;50.940;4.034;2022-09-02T09:21:52;5.25;;;3.75;;
52266;SDS011;38223;50.940;4.034;2022-09-02T09:24:27;7.80;;;3.87;;
52266;SDS011;38223;50.940;4.034;2022-09-02T09:27:12;9.08;;;3.72;;
52266;SDS011;38223;50.940;4.034;2022-09-02T09:29:45;4.42;;;3.20;;
52266;SDS011;38223;50.940;4.034;2022-09-02T09:32:31;5.20;;;3.02;;
52266;SDS011;38223;50.940;4.034;2022-09-02T09:35:17;7.75;;;3.08;;
52266;SDS011;38223;50.940;4.034;2022-09-02T09:37:49;4.30;;;2.90;;
52266;SDS011;38223;50.940;4.034;2022-09-02T09:40:22;6.42;;;3.40;;
52266;SDS011;38223;50.940;4.034;2022-09-02T09:45:47;8.45;;;3.37;;
52266;SDS011;38223;50.940;4.034;2022-09-02T09:48:25;5.40;;;3.30;;
52266;SDS011;38223;50.940;4.034;2022-09-02T09:56:30;5.67;;;2.92;;
52266;SDS011;38223;50.940;4.034;2022-09-02T09:59:04;4.42;;;2.87;;
52266;SDS011;38223;50.940;4.034;2022-09-02T10:01:38;5.58;;;3.50;;
52266;SDS011;38223;50.940;4.034;2022-09-02T10:04:23;6.62;;;3.25;;
52266;SDS011;38223;50.940;4.034;2022-09-02T10:06:53;5.75;;;3.22;;
52266;SDS011;38223;50.940;4.034;2022-09-02T10:12:06;4.33;;;3.10;;
52266;SDS011;38223;50.940;4.034;2022-09-02T10:14:43;8.10;;;3.30;;
52266;SDS011;38223;50.940;4.034;2022-09-02T10:17:22;5.72;;;3.40;;
52266;SDS011;38223;50.940;4.034;2022-09-02T10:23:02;4.72;;;3.20;;
52266;SDS011;38223;50.940;4.034;2022-09-02T10:31:12;3.75;;;2.80;;
52266;SDS011;38223;50.940;4.034;2022-09-02T10:48:20;6.80;;;3.30;;
52266;SDS011;38223;50.940;4.034;2022-09-02T10:57:05;2.37;;;2.00;;
52266;SDS011;38223;50.940;4.034;2022-09-02T11:02:27;3.12;;;2.40;;
52266;SDS011;38223;50.940;4.034;2022-09-02T11:04:59;3.37;;;2.40;;
52266;SDS011;38223;50.940;4.034;2022-09-02T11:07:41;3.02;;;2.72;;
52266;SDS011;38223;50.940;4.034;2022-09-02T11:10:22;4.22;;;2.58;;
52266;SDS011;38223;50.940;4.034;2022-09-02T11:13:03;5.08;;;2.45;;
52266;SDS011;38223;50.940;4.034;2022-09-02T11:15:53;5.97;;;2.50;;
52266;SDS011;38223;50.940;4.034;2022-09-02T11:18:31;7.97;;;2.45;;
52266;SDS011;38223;50.940;4.034;2022-09-02T11:23:59;5.67;;;2.47;;
52266;SDS011;38223;50.940;4.034;2022-09-02T11:29:15;8.95;;;2.80;;
52266;SDS011;38223;50.940;4.034;2022-09-02T11:34:40;2.77;;;2.50;;
52266;SDS011;38223;50.940;4.034;2022-09-02T11:40:17;6.75;;;3.08;;
52266;SDS011;38223;50.940;4.034;2022-09-02T11:45:54;4.58;;;2.90;;
52266;SDS011;38223;50.940;4.034;2022-09-02T11:48:45;3.10;;;2.52;;
52266;SDS011;38223;50.940;4.034;2022-09-02T11:51:23;3.02;;;2.67;;
52266;SDS011;38223;50.940;4.034;2022-09-02T11:53:54;3.95;;;2.37;;
52266;SDS011;38223;50.940;4.034;2022-09-02T11:56:28;4.47;;;2.67;;
52266;SDS011;38223;50.940;4.034;2022-09-02T11:59:02;5.67;;;2.30;;
52266;SDS011;38223;50.940;4.034;2022-09-02T12:01:37;5.17;;;2.27;;
52266;SDS011;38223;50.940;4.034;2022-09-02T12:09:44;2.02;;;1.92;;
52266;SDS011;38223;50.940;4.034;2022-09-02T12:13:00;2.50;;;2.30;;
52266;SDS011;38223;50.940;4.034;2022-09-02T12:15:16;4.40;;;2.72;;
52266;SDS011;38223;50.940;4.034;2022-09-02T12:18:11;2.40;;;2.20;;
52266;SDS011;38223;50.940;4.034;2022-09-02T12:29:12;4.53;;;2.60;;
52266;SDS011;38223;50.940;4.034;2022-09-02T12:31:49;4.10;;;2.33;;
52266;SDS011;38223;50.940;4.034;2022-09-02T12:37:01;7.50;;;2.80;;
52266;SDS011;38223;50.940;4.034;2022-09-02T12:50:28;3.60;;;2.08;;
52266;SDS011;38223;50.940;4.034;2022-09-02T12:53:25;5.22;;;1.90;;
52266;SDS011;38223;50.940;4.034;2022-09-02T12:55:56;2.58;;;2.20;;
52266;SDS011;38223;50.940;4.034;2022-09-02T12:58:35;2.95;;;1.80;;
52266;SDS011;38223;50.940;4.034;2022-09-02T13:04:22;3.12;;;2.50;;
52266;SDS011;38223;50.940;4.034;2022-09-02T13:09:56;2.77;;;2.00;;
52266;SDS011;38223;50.940;4.034;2022-09-02T13:12:56;4.42;;;2.30;;
52266;SDS011;38223;50.940;4.034;2022-09-02T13:18:45;5.83;;;2.50;;
52266;SDS011;38223;50.940;4.034;2022-09-02T13:21:04;8.35;;;2.33;;
52266;SDS011;38223;50.940;4.034;2022-09-02T13:24:05;5.45;;;2.40;;
52266;SDS011;38223;50.940;4.034;2022-09-02T13:29:41;7.00;;;2.70;;
52266;SDS011;38223;50.940;4.034;2022-09-02T13:34:52;8.73;;;2.62;;
52266;SDS011;38223;50.940;4.034;2022-09-02T13:37:32;6.12;;;1.90;;
52266;SDS011;38223;50.940;4.034;2022-09-02T13:43:15;5.03;;;2.35;;
52266;SDS011;38223;50.940;4.034;2022-09-02T13:45:36;10.00;;;2.60;;
52266;SDS011;38223;50.940;4.034;2022-09-02T13:48:10;2.12;;;1.80;;
52266;SDS011;38223;50.940;4.034;2022-09-02T13:50:44;3.40;;;2.00;;
52266;SDS011;38223;50.940;4.034;2022-09-02T13:53:31;2.17;;;1.98;;
52266;SDS011;38223;50.940;4.034;2022-09-02T13:56:10;3.37;;;1.82;;
52266;SDS011;38223;50.940;4.034;2022-09-02T13:58:48;1.72;;;1.60;;
52266;SDS011;38223;50.940;4.034;2022-09-02T14:01:27;2.92;;;2.10;;
52266;SDS011;38223;50.940;4.034;2022-09-02T14:04:10;3.30;;;2.55;;
52266;SDS011;38223;50.940;4.034;2022-09-02T14:06:51;5.90;;;2.12;;
52266;SDS011;38223;50.940;4.034;2022-09-02T14:09:27;5.33;;;1.80;;
52266;SDS011;38223;50.940;4.034;2022-09-02T14:12:05;3.80;;;2.00;;
52266;SDS011;38223;50.940;4.034;2022-09-02T14:14:38;8.33;;;2.33;;
52266;SDS011;38223;50.940;4.034;2022-09-02T14:17:20;2.40;;;1.72;;
52266;SDS011;38223;50.940;4.034;2022-09-02T14:22:54;4.03;;;2.47;;
52266;SDS011;38223;50.940;4.034;2022-09-02T14:25:33;4.45;;;2.35;;
52266;SDS011;38223;50.940;4.034;2022-09-02T14:28:10;3.52;;;1.80;;
52266;SDS011;38223;50.940;4.034;2022-09-02T14:30:40;4.72;;;1.77;;
52266;SDS011;38223;50.940;4.034;2022-09-02T14:36:03;4.55;;;1.60;;
52266;SDS011;38223;50.940;4.034;2022-09-02T14:41:26;3.55;;;2.10;;
52266;SDS011;38223;50.940;4.034;2022-09-02T14:44:07;2.83;;;1.90;;
52266;SDS011;38223;50.940;4.034;2022-09-02T14:46:45;3.33;;;1.87;;
52266;SDS011;38223;50.940;4.034;2022-09-02T14:49:22;3.40;;;1.90;;
52266;SDS011;38223;50.940;4.034;2022-09-02T14:51:55;1.70;;;1.60;;
52266;SDS011;38223;50.940;4.034;2022-09-02T14:54:39;5.33;;;1.85;;
52266;SDS011;38223;50.940;4.034;2022-09-02T14:59:55;2.85;;;1.70;;
52266;SDS011;38223;50.940;4.034;2022-09-02T15:05:05;3.02;;;1.80;;
52266;SDS011;38223;50.940;4.034;2022-09-02T15:07:41;2.30;;;1.62;;
52266;SDS011;38223;50.940;4.034;2022-09-02T15:10:13;1.65;;;1.55;;
52266;SDS011;38223;50.940;4.034;2022-09-02T15:12:47;3.40;;;2.02;;
52266;SDS011;38223;50.940;4.034;2022-09-02T15:17:52;3.98;;;1.70;;
52266;SDS011;38223;50.940;4.034;2022-09-02T15:20:24;3.52;;;1.42;;
52266;SDS011;38223;50.940;4.034;2022-09-02T15:22:59;4.58;;;1.70;;
52266;SDS011;38223;50.940;4.034;2022-09-02T15:25:30;2.80;;;1.70;;
52266;SDS011;38223;50.940;4.034;2022-09-02T15:28:04;3.65;;;1.77;;
52266;SDS011;38223;50.940;4.034;2022-09-02T15:30:35;2.80;;;1.87;;
52266;SDS011;38223;50.940;4.034;2022-09-02T15:33:12;4.55;;;1.50;;
52266;SDS011;38223;50.940;4.034;2022-09-02T15:35:42;4.40;;;1.65;;
52266;SDS011;38223;50.940;4.034;2022-09-02T15:38:14;1.98;;;1.57;;
52266;SDS011;38223;50.940;4.034;2022-09-02T15:40:46;2.65;;;1.60;;
52266;SDS011;38223;50.940;4.034;2022-09-02T15:43:18;3.08;;;1.87;;
52266;SDS011;38223;50.940;4.034;2022-09-02T15:45:48;2.42;;;1.70;;
52266;SDS011;38223;50.940;4.034;2022-09-02T15:48:17;3.33;;;1.50;;
52266;SDS011;38223;50.940;4.034;2022-09-02T15:50:44;2.83;;;1.80;;
52266;SDS011;38223;50.940;4.034;2022-09-02T15:53:13;5.28;;;1.60;;
52266;SDS011;38223;50.940;4.034;2022-09-02T15:58:09;4.47;;;1.42;;
52266;SDS011;38223;50.940;4.034;2022-09-02T16:00:37;1.98;;;1.50;;
52266;SDS011;38223;50.940;4.034;2022-09-02T16:03:05;3.05;;;2.12;;
52266;SDS011;38223;50.940;4.034;2022-09-02T16:05:38;3.33;;;1.70;;
52266;SDS011;38223;50.940;4.034;2022-09-02T16:08:07;2.40;;;1.90;;
52266;SDS011;38223;50.940;4.034;2022-09-02T16:10:39;4.50;;;1.60;;
52266;SDS011;38223;50.940;4.034;2022-09-02T16:13:09;1.70;;;1.57;;
52266;SDS011;38223;50.940;4.034;2022-09-02T16:15:42;4.78;;;1.87;;
52266;SDS011;38223;50.940;4.034;2022-09-02T16:18:13;5.22;;;1.72;;
52266;SDS011;38223;50.940;4.034;2022-09-02T16:20:49;3.92;;;1.77;;
52266;SDS011;38223;50.940;4.034;2022-09-02T16:23:21;4.25;;;1.52;;
52266;SDS011;38223;50.940;4.034;2022-09-02T16:26:20;3.05;;;1.40;;
52266;SDS011;38223;50.940;4.034;2022-09-02T16:28:56;2.17;;;1.98;;
52266;SDS011;38223;50.940;4.034;2022-09-02T16:31:32;5.47;;;1.98;;
52266;SDS011;38223;50.940;4.034;2022-09-02T16:34:14;3.85;;;2.30;;
52266;SDS011;38223;50.940;4.034;2022-09-02T16:36:40;6.50;;;2.47;;
52266;SDS011;38223;50.940;4.034;2022-09-02T16:39:15;5.12;;;2.60;;
52266;SDS011;38223;50.940;4.034;2022-09-02T16:41:49;4.03;;;2.60;;
52266;SDS011;38223;50.940;4.034;2022-09-02T16:44:20;6.10;;;2.98;;
52266;SDS011;38223;50.940;4.034;2022-09-02T16:46:52;5.92;;;2.35;;
52266;SDS011;38223;50.940;4.034;2022-09-02T16:49:21;4.45;;;2.85;;
52266;SDS011;38223;50.940;4.034;2022-09-02T16:51:51;6.17;;;2.52;;
52266;SDS011;38223;50.940;4.034;2022-09-02T16:54:24;3.05;;;2.70;;
52266;SDS011;38223;50.940;4.034;2022-09-02T16:56:57;4.03;;;3.00;;
52266;SDS011;38223;50.940;4.034;2022-09-02T16:59:33;6.37;;;3.20;;
52266;SDS011;38223;50.940;4.034;2022-09-02T17:02:04;7.47;;;2.98;;
52266;SDS011;38223;50.940;4.034;2022-09-02T17:04:38;5.47;;;2.83;;
52266;SDS011;38223;50.940;4.034;2022-09-02T17:07:08;9.50;;;4.92;;
52266;SDS011;38223;50.940;4.034;2022-09-02T17:09:43;6.72;;;2.83;;
52266;SDS011;38223;50.940;4.034;2022-09-02T17:12:14;6.40;;;2.70;;
52266;SDS011;38223;50.940;4.034;2022-09-02T17:14:46;3.77;;;2.67;;
52266;SDS011;38223;50.940;4.034;2022-09-02T17:17:17;3.98;;;2.60;;
52266;SDS011;38223;50.940;4.034;2022-09-02T17:19:49;8.70;;;3.00;;
52266;SDS011;38223;50.940;4.034;2022-09-02T17:22:23;7.65;;;2.67;;
52266;SDS011;38223;50.940;4.034;2022-09-02T17:24:55;7.72;;;2.92;;
52266;SDS011;38223;50.940;4.034;2022-09-02T17:27:29;4.78;;;2.92;;
52266;SDS011;38223;50.940;4.034;2022-09-02T17:30:06;3.40;;;3.10;;
52266;SDS011;38223;50.940;4.034;2022-09-02T17:32:37;4.67;;;2.50;;
52266;SDS011;38223;50.940;4.034;2022-09-02T17:35:12;5.30;;;2.60;;
52266;SDS011;38223;50.940;4.034;2022-09-02T17:37:39;8.53;;;2.87;;
52266;SDS011;38223;50.940;4.034;2022-09-02T17:40:10;3.55;;;2.25;;
52266;SDS011;38223;50.940;4.034;2022-09-02T17:42:41;4.90;;;2.62;;
52266;SDS011;38223;50.940;4.034;2022-09-02T17:45:11;13.55;;;2.95;;
52266;SDS011;38223;50.940;4.034;2022-09-02T17:47:39;5.50;;;2.50;;
52266;SDS011;38223;50.940;4.034;2022-09-02T17:50:14;4.37;;;2.87;;
52266;SDS011;38223;50.940;4.034;2022-09-02T17:52:45;6.72;;;2.42;;
52266;SDS011;38223;50.940;4.034;2022-09-02T17:55:17;4.22;;;2.70;;